Time;durP1;ratioP1;P1;durP2;ratioP2;P2;SDS_P1;SDS_P2;PMS_P1;PMS_P2;Temp;Humidity;BMP_temperature;BMP_pressure;BME280_temperature;BME280_humidity;BME280_pressure;Samples;Min_cycle;Max_cycle;Signal;HPM_P1;HPM_P2
2023/03/13 00:01:30;;;;;;;34.70;5.95;;;8.50;1.00;;;;;;5072317;28;20044;-82
2023/03/13 00:03:56;;;;;;;30.30;6.13;;;8.40;9.80;;;;;;5075060;28;20116;-82
2023/03/13 00:06:24;;;;;;;36.22;5.80;;;8.40;22.10;;;;;;5068149;28;20121;-82
2023/03/13 00:08:50;;;;;;;34.20;5.70;;;8.40;25.80;;;;;;5071337;28;20040;-81
2023/03/13 00:11:15;;;;;;;38.63;6.38;;;8.30;42.70;;;;;;5062786;28;20121;-82
2023/03/13 00:13:42;;;;;;;44.15;7.07;;;8.30;55.50;;;;;;5047429;28;20052;-82
2023/03/13 00:16:15;;;;;;;39.40;7.07;;;8.30;67.90;;;;;;5074892;28;20057;-82
2023/03/13 00:18:49;;;;;;;34.78;5.50;;;8.30;75.40;;;;;;5064325;28;20067;-82
2023/03/13 00:21:16;;;;;;;36.67;5.82;;;8.20;86.80;;;;;;5069036;28;20048;-81
2023/03/13 00:23:42;;;;;;;39.55;6.28;;;8.20;94.40;;;;;;5080184;28;20044;-82
2023/03/13 00:26:11;;;;;;;43.03;7.43;;;8.20;98.20;;;;;;5069433;28;20059;-83
2023/03/13 00:28:38;;;;;;;36.72;6.30;;;8.20;99.90;;;;;;5065493;28;20131;-81
2023/03/13 00:31:05;;;;;;;42.50;8.10;;;8.10;99.90;;;;;;5066623;28;20052;-83
2023/03/13 00:33:33;;;;;;;43.13;6.00;;;8.20;99.90;;;;;;5058673;28;20131;-81
2023/03/13 00:36:00;;;;;;;38.35;6.70;;;8.20;99.90;;;;;;5047936;28;20512;-81
2023/03/13 00:38:30;;;;;;;40.75;6.47;;;8.10;99.90;;;;;;5060461;28;20080;-82
2023/03/13 00:41:04;;;;;;;29.95;6.50;;;8.10;99.90;;;;;;5043767;28;20048;-84
2023/03/13 00:43:30;;;;;;;39.90;5.95;;;8.10;99.90;;;;;;5063493;28;20053;-86
2023/03/13 00:45:56;;;;;;;36.65;6.28;;;8.10;99.90;;;;;;5056709;28;20110;-82
2023/03/13 00:48:23;;;;;;;41.33;7.40;;;8.00;99.90;;;;;;5062494;28;20053;-81
2023/03/13 00:50:48;;;;;;;34.75;7.35;;;8.10;99.90;;;;;;5061803;28;20166;-86
2023/03/13 00:53:14;;;;;;;36.78;6.57;;;8.10;99.90;;;;;;5067372;28;20139;-81
2023/03/13 00:56:00;;;;;;;33.35;6.30;;;8.00;99.90;;;;;;5068905;28;20045;-86
2023/03/13 00:58:28;;;;;;;46.00;6.93;;;8.00;99.90;;;;;;5067002;28;20048;-83
2023/03/13 01:00:54;;;;;;;44.95;6.93;;;8.00;99.90;;;;;;5055102;28;20729;-82
2023/03/13 01:03:24;;;;;;;44.60;6.65;;;8.00;99.90;;;;;;5059127;28;20053;-82
2023/03/13 01:06:00;;;;;;;35.40;6.68;;;8.00;99.90;;;;;;5067236;28;20069;-82
2023/03/13 01:08:27;;;;;;;41.97;6.57;;;8.00;99.90;;;;;;5079016;28;20127;-83
2023/03/13 01:11:16;;;;;;;31.23;7.70;;;8.00;99.90;;;;;;5073406;28;20051;-83
2023/03/13 01:13:43;;;;;;;33.63;6.75;;;8.00;99.90;;;;;;5072101;28;20124;-83
2023/03/13 01:16:17;;;;;;;38.45;6.53;;;8.00;99.90;;;;;;5064734;28;20198;-83
2023/03/13 01:18:48;;;;;;;35.53;6.40;;;8.00;99.90;;;;;;5067934;28;20438;-83
2023/03/13 01:21:15;;;;;;;35.60;6.13;;;8.00;99.90;;;;;;5063492;28;20482;-82
2023/03/13 01:23:41;;;;;;;45.05;7.35;;;8.00;99.90;;;;;;5064817;28;20162;-82
2023/03/13 01:26:08;;;;;;;34.72;6.70;;;8.00;99.90;;;;;;5072942;28;20052;-82
2023/03/13 01:28:35;;;;;;;51.60;8.20;;;8.00;99.90;;;;;;5060188;28;21308;-82
2023/03/13 01:31:20;;;;;;;31.55;6.32;;;8.10;99.90;;;;;;5059799;28;20059;-82
2023/03/13 01:33:48;;;;;;;40.85;6.88;;;8.10;99.90;;;;;;5064372;28;20044;-81
2023/03/13 01:36:14;;;;;;;40.30;8.07;;;8.10;99.90;;;;;;5053603;28;20076;-82
2023/03/13 01:38:40;;;;;;;39.85;7.32;;;8.10;99.90;;;;;;5055905;28;20045;-83
2023/03/13 01:41:07;;;;;;;34.15;6.43;;;8.10;99.90;;;;;;5072602;28;20051;-82
2023/03/13 01:43:35;;;;;;;34.45;6.18;;;8.10;99.90;;;;;;5065304;28;20482;-82
2023/03/13 01:46:02;;;;;;;36.83;6.60;;;8.20;99.90;;;;;;5072978;28;20931;-83
2023/03/13 01:48:31;;;;;;;24.38;5.85;;;8.20;99.90;;;;;;5051845;28;20049;-82
2023/03/13 01:50:59;;;;;;;38.58;6.25;;;8.20;99.90;;;;;;5060798;28;20056;-82
2023/03/13 01:53:25;;;;;;;39.15;7.22;;;8.10;99.90;;;;;;5079867;28;20080;-83
2023/03/13 01:55:53;;;;;;;31.95;7.30;;;8.20;99.90;;;;;;5074287;28;20076;-82
2023/03/13 01:58:19;;;;;;;28.02;5.90;;;8.20;99.90;;;;;;5066221;28;20052;-82
2023/03/13 02:00:45;;;;;;;28.83;5.97;;;8.20;99.90;;;;;;5068510;28;20048;-82
2023/03/13 02:03:14;;;;;;;41.95;6.90;;;8.20;99.90;;;;;;5070779;28;20497;-81
2023/03/13 02:05:41;;;;;;;39.75;6.50;;;8.20;99.90;;;;;;5066496;28;20520;-83
2023/03/13 02:08:18;;;;;;;33.78;6.05;;;8.20;99.90;;;;;;5063233;28;20076;-82
2023/03/13 02:11:01;;;;;;;30.80;6.70;;;8.20;99.90;;;;;;5069726;28;20044;-86
2023/03/13 02:13:28;;;;;;;35.67;5.95;;;8.30;99.90;;;;;;5069638;28;20139;-81
2023/03/13 02:15:53;;;;;;;38.83;7.72;;;8.30;99.90;;;;;;5073961;28;20055;-82
2023/03/13 02:18:19;;;;;;;33.83;7.25;;;8.30;99.90;;;;;;5058275;28;20044;-82
2023/03/13 02:20:46;;;;;;;41.80;7.55;;;8.30;99.90;;;;;;5079335;28;20036;-84
2023/03/13 02:23:23;;;;;;;37.25;7.35;;;8.30;99.90;;;;;;5070835;28;20044;-81
2023/03/13 02:25:52;;;;;;;39.25;7.88;;;8.40;99.90;;;;;;5057230;28;20118;-82
2023/03/13 02:28:23;;;;;;;38.20;8.63;;;8.30;99.90;;;;;;5072111;28;20895;-79
2023/03/13 02:30:51;;;;;;;32.50;7.75;;;8.30;99.90;;;;;;5068435;28;20132;-80
2023/03/13 02:33:19;;;;;;;36.50;7.25;;;8.40;99.90;;;;;;5075004;28;20052;-78
2023/03/13 02:35:46;;;;;;;37.88;7.75;;;8.30;99.90;;;;;;5044892;28;20045;-85
2023/03/13 02:38:18;;;;;;;23.95;7.03;;;8.40;99.90;;;;;;5056927;28;20036;-78
2023/03/13 02:40:47;;;;;;;26.13;6.75;;;8.40;99.90;;;;;;5063596;28;20039;-80
2023/03/13 02:43:32;;;;;;;27.23;7.40;;;8.50;99.90;;;;;;5064553;28;20059;-79
2023/03/13 02:46:06;;;;;;;25.23;5.82;;;8.50;99.90;;;;;;5066622;28;20072;-80
2023/03/13 02:48:41;;;;;;;22.35;6.22;;;8.50;99.90;;;;;;5072089;28;20080;-79
2023/03/13 02:51:28;;;;;;;25.88;6.90;;;8.50;99.90;;;;;;5070582;28;20040;-78
2023/03/13 02:54:00;;;;;;;18.42;6.03;;;8.50;99.90;;;;;;5084103;28;20048;-78
2023/03/13 02:56:28;;;;;;;16.35;5.70;;;8.50;99.90;;;;;;5062905;28;20045;-78
2023/03/13 02:58:54;;;;;;;16.80;5.93;;;8.60;99.90;;;;;;5058096;28;20043;-84
2023/03/13 03:01:19;;;;;;;17.50;5.45;;;8.60;99.90;;;;;;5063294;28;20045;-78
2023/03/13 03:03:45;;;;;;;18.33;6.03;;;8.60;99.90;;;;;;5057998;28;20091;-81
2023/03/13 03:06:11;;;;;;;19.65;5.63;;;8.70;99.90;;;;;;5074239;28;20583;-83
2023/03/13 03:08:40;;;;;;;18.98;5.97;;;8.70;99.90;;;;;;5070636;28;20129;-78
2023/03/13 03:11:06;;;;;;;18.73;5.68;;;8.70;99.90;;;;;;5071624;28;20055;-78
2023/03/13 03:13:32;;;;;;;21.23;5.38;;;8.70;99.90;;;;;;5078521;28;20050;-78
2023/03/13 03:15:58;;;;;;;12.13;5.28;;;8.80;99.90;;;;;;5069550;28;20650;-79
2023/03/13 03:18:24;;;;;;;14.07;5.25;;;8.80;99.90;;;;;;5070854;28;20048;-78
2023/03/13 03:20:50;;;;;;;13.73;5.35;;;8.80;99.90;;;;;;5068652;28;20378;-83
2023/03/13 03:23:15;;;;;;;15.77;5.25;;;8.80;99.90;;;;;;5073412;28;20055;-80
2023/03/13 03:25:41;;;;;;;12.23;4.70;;;8.80;99.90;;;;;;5069704;28;20427;-78
2023/03/13 03:28:07;;;;;;;15.18;5.13;;;8.80;99.90;;;;;;5052664;28;20281;-78
2023/03/13 03:30:33;;;;;;;12.45;5.05;;;8.90;99.90;;;;;;5054718;28;20053;-79
2023/03/13 03:32:58;;;;;;;13.88;4.97;;;8.90;99.90;;;;;;5057103;28;20387;-79
2023/03/13 03:35:24;;;;;;;14.25;5.10;;;8.90;99.90;;;;;;5071160;28;20084;-80
2023/03/13 03:37:50;;;;;;;15.80;5.10;;;8.90;99.90;;;;;;5060370;28;20193;-79
2023/03/13 03:40:15;;;;;;;14.35;5.50;;;9.00;99.90;;;;;;5070160;28;20232;-83
2023/03/13 03:42:41;;;;;;;12.13;5.50;;;9.00;99.90;;;;;;5074665;28;20048;-78
2023/03/13 03:45:07;;;;;;;13.32;5.28;;;9.10;99.90;;;;;;5078783;28;20158;-78
2023/03/13 03:47:33;;;;;;;13.13;5.00;;;9.10;99.90;;;;;;5078872;28;20044;-80
2023/03/13 03:49:58;;;;;;;12.45;5.35;;;9.10;99.90;;;;;;5066811;28;20044;-80
2023/03/13 03:52:24;;;;;;;13.23;5.35;;;9.10;99.90;;;;;;5072764;28;20036;-79
2023/03/13 03:54:50;;;;;;;12.98;5.55;;;9.10;99.90;;;;;;5066696;28;20049;-81
2023/03/13 03:57:15;;;;;;;8.80;4.88;;;9.20;99.90;;;;;;5064061;28;20135;-78
2023/03/13 03:59:41;;;;;;;12.27;5.55;;;9.20;99.90;;;;;;5076304;28;20048;-78
2023/03/13 04:02:07;;;;;;;14.90;5.68;;;9.30;99.90;;;;;;5076777;28;20041;-77
2023/03/13 04:04:32;;;;;;;12.73;5.70;;;9.40;99.90;;;;;;5078071;28;20055;-84
2023/03/13 04:06:58;;;;;;;14.90;5.95;;;9.40;99.90;;;;;;5060195;28;20048;-83
2023/03/13 04:09:24;;;;;;;10.07;5.60;;;9.40;99.90;;;;;;5058582;28;20045;-77
2023/03/13 04:11:49;;;;;;;14.18;5.47;;;9.40;99.90;;;;;;5079706;28;20040;-77
2023/03/13 04:14:15;;;;;;;10.10;5.18;;;9.50;99.90;;;;;;5065790;28;20044;-77
2023/03/13 04:16:41;;;;;;;15.13;5.88;;;9.50;99.90;;;;;;5064330;28;20037;-77
2023/03/13 04:19:06;;;;;;;10.23;5.05;;;9.60;99.90;;;;;;5062176;28;20044;-78
2023/03/13 04:21:32;;;;;;;10.75;4.90;;;9.60;99.90;;;;;;5065123;28;20029;-78
2023/03/13 04:23:57;;;;;;;12.50;5.78;;;9.70;99.90;;;;;;5058058;28;20115;-78
2023/03/13 04:26:23;;;;;;;11.75;6.10;;;9.70;99.90;;;;;;5064209;28;20098;-78
2023/03/13 04:28:49;;;;;;;10.70;5.10;;;9.80;99.90;;;;;;5069194;28;20041;-77
2023/03/13 04:31:15;;;;;;;10.32;5.35;;;9.80;99.90;;;;;;5079589;28;20059;-80
2023/03/13 04:33:40;;;;;;;9.13;5.75;;;9.80;99.90;;;;;;5080677;28;20059;-78
2023/03/13 04:36:06;;;;;;;11.48;5.85;;;9.90;99.90;;;;;;5077172;28;20402;-78
2023/03/13 04:38:32;;;;;;;10.18;5.55;;;9.90;99.90;;;;;;5076585;28;20107;-77
2023/03/13 04:40:57;;;;;;;12.55;5.35;;;10.00;99.90;;;;;;5055380;28;20570;-78
2023/03/13 04:43:23;;;;;;;6.50;3.75;;;10.00;99.90;;;;;;5062017;28;20092;-78
2023/03/13 04:45:53;;;;;;;10.10;5.05;;;10.00;99.90;;;;;;5066341;28;20088;-80
2023/03/13 04:48:19;;;;;;;14.73;6.30;;;10.10;99.90;;;;;;5063916;28;20049;-80
2023/03/13 04:50:47;;;;;;;11.45;6.30;;;10.20;99.90;;;;;;5067966;28;20046;-79
2023/03/13 04:53:13;;;;;;;12.98;7.28;;;10.30;99.90;;;;;;5069175;28;20041;-78
2023/03/13 04:55:39;;;;;;;12.77;7.00;;;10.30;99.90;;;;;;5063156;28;20044;-78
2023/03/13 04:58:04;;;;;;;15.88;7.57;;;10.40;99.90;;;;;;5066282;28;20516;-77
2023/03/13 05:00:30;;;;;;;14.77;8.07;;;10.40;99.90;;;;;;5066823;28;20044;-78
2023/03/13 05:02:56;;;;;;;16.73;8.23;;;10.40;99.90;;;;;;5059080;28;20054;-78
2023/03/13 05:05:21;;;;;;;16.75;8.38;;;10.50;99.90;;;;;;5061230;28;20135;-78
2023/03/13 05:07:47;;;;;;;12.45;7.15;;;10.50;99.90;;;;;;5064897;28;20040;-84
2023/03/13 05:10:13;;;;;;;16.52;8.38;;;10.50;99.90;;;;;;5059884;28;21184;-77
2023/03/13 05:12:38;;;;;;;16.77;9.23;;;10.50;99.90;;;;;;5059400;28;20568;-80
2023/03/13 05:15:05;;;;;;;12.00;6.75;;;10.60;99.90;;;;;;5042773;28;20087;-78
2023/03/13 05:17:31;;;;;;;14.77;7.97;;;10.60;99.90;;;;;;5058787;28;20070;-78
2023/03/13 05:19:56;;;;;;;16.23;9.90;;;10.70;99.90;;;;;;5043493;28;20052;-78
2023/03/13 05:22:22;;;;;;;17.40;9.75;;;10.70;99.90;;;;;;5064620;28;20053;-80
2023/03/13 05:24:47;;;;;;;20.63;10.55;;;10.80;99.90;;;;;;5059102;28;20072;-78
2023/03/13 05:27:13;;;;;;;22.98;10.52;;;10.80;99.90;;;;;;5061316;28;20052;-80
2023/03/13 05:29:39;;;;;;;14.93;9.02;;;10.80;99.90;;;;;;5055337;28;20052;-81
2023/03/13 05:32:05;;;;;;;21.92;11.30;;;10.90;99.90;;;;;;5074941;28;20045;-78
2023/03/13 05:34:30;;;;;;;16.42;9.52;;;10.90;99.90;;;;;;5066091;28;20695;-82
2023/03/13 05:36:56;;;;;;;15.73;9.45;;;11.00;99.90;;;;;;5066126;28;20075;-78
2023/03/13 05:39:22;;;;;;;16.35;8.63;;;10.90;99.90;;;;;;5059317;28;20512;-81
2023/03/13 05:41:48;;;;;;;15.20;9.82;;;10.90;99.90;;;;;;5054424;28;20047;-82
2023/03/13 05:44:13;;;;;;;14.05;8.85;;;11.00;99.90;;;;;;5037320;28;20056;-85
2023/03/13 05:46:39;;;;;;;12.02;7.05;;;11.10;99.90;;;;;;5054287;28;20057;-83
2023/03/13 05:49:05;;;;;;;12.75;8.05;;;11.10;99.90;;;;;;5055829;28;20489;-80
2023/03/13 05:51:30;;;;;;;18.75;7.90;;;11.10;99.90;;;;;;5057888;28;20072;-81
2023/03/13 05:53:56;;;;;;;12.18;7.07;;;11.10;99.90;;;;;;5056771;28;20513;-83
2023/03/13 05:56:22;;;;;;;15.38;8.70;;;11.10;99.90;;;;;;5059599;28;20040;-82
2023/03/13 05:58:47;;;;;;;11.88;7.00;;;11.10;99.90;;;;;;5063944;28;20045;-80
2023/03/13 06:01:13;;;;;;;12.10;7.35;;;11.20;99.90;;;;;;5075974;28;20040;-82
2023/03/13 06:03:39;;;;;;;11.15;7.50;;;11.10;99.90;;;;;;5070614;28;20106;-82
2023/03/13 06:06:05;;;;;;;11.23;7.55;;;11.20;99.90;;;;;;5064724;28;20367;-84
2023/03/13 06:08:31;;;;;;;18.67;8.85;;;11.10;99.90;;;;;;5054713;28;20055;-83
2023/03/13 06:11:01;;;;;;;12.90;7.85;;;11.10;99.90;;;;;;5064036;28;20393;-83
2023/03/13 06:13:27;;;;;;;10.57;7.15;;;11.20;99.90;;;;;;5041319;28;20095;-85
2023/03/13 06:15:56;;;;;;;13.43;7.20;;;11.10;99.90;;;;;;5056370;28;20127;-81
2023/03/13 06:18:23;;;;;;;14.88;6.97;;;11.10;99.90;;;;;;5053985;28;20049;-85
2023/03/13 06:20:54;;;;;;;10.68;6.80;;;11.10;99.90;;;;;;5061732;28;20450;-82
2023/03/13 06:23:19;;;;;;;10.65;6.90;;;11.20;99.90;;;;;;5061432;28;20040;-86
2023/03/13 06:25:48;;;;;;;14.35;7.30;;;11.20;99.90;;;;;;5048183;28;20482;-84
2023/03/13 06:28:14;;;;;;;13.02;6.53;;;11.20;99.90;;;;;;5052421;28;20113;-80
2023/03/13 06:30:40;;;;;;;15.02;7.13;;;11.30;99.90;;;;;;5050749;28;20080;-80
2023/03/13 06:33:06;;;;;;;13.25;7.15;;;11.30;99.90;;;;;;5063974;28;20493;-84
2023/03/13 06:35:31;;;;;;;11.00;6.50;;;11.20;99.90;;;;;;5049788;28;20047;-83
2023/03/13 06:37:57;;;;;;;17.77;7.68;;;11.30;99.90;;;;;;5052886;28;20126;-86
2023/03/13 06:40:23;;;;;;;8.30;5.22;;;11.30;99.90;;;;;;5061831;28;20040;-85
2023/03/13 06:42:48;;;;;;;16.83;7.57;;;11.30;99.90;;;;;;5056051;28;20505;-85
2023/03/13 06:45:14;;;;;;;13.32;6.07;;;11.30;99.90;;;;;;5073063;28;20387;-89
2023/03/13 06:47:40;;;;;;;20.92;8.35;;;11.30;99.90;;;;;;5068809;28;20244;-84
2023/03/13 06:50:06;;;;;;;18.05;8.15;;;11.30;99.90;;;;;;5068291;28;20041;-89
2023/03/13 06:52:32;;;;;;;18.58;7.53;;;11.20;99.90;;;;;;5064704;28;20035;-85
2023/03/13 06:54:57;;;;;;;20.77;8.23;;;11.30;99.90;;;;;;5061111;28;20067;-85
2023/03/13 06:57:23;;;;;;;17.63;6.25;;;11.20;99.90;;;;;;5049140;28;20053;-90
2023/03/13 06:59:48;;;;;;;18.85;7.38;;;11.30;99.90;;;;;;5075811;28;20094;-83
2023/03/13 07:02:15;;;;;;;15.95;7.45;;;11.20;99.90;;;;;;5054865;28;20048;-84
2023/03/13 07:04:42;;;;;;;19.10;7.78;;;11.20;99.90;;;;;;5024639;28;20063;-84
2023/03/13 07:07:08;;;;;;;14.50;5.95;;;11.20;99.90;;;;;;5051562;28;20049;-83
2023/03/13 07:09:33;;;;;;;18.00;6.57;;;11.20;99.90;;;;;;5066084;28;20094;-84
2023/03/13 07:11:59;;;;;;;19.38;6.63;;;11.30;99.90;;;;;;5039457;28;20048;-87
2023/03/13 07:14:25;;;;;;;19.67;6.63;;;11.10;99.90;;;;;;5031511;28;20052;-90
2023/03/13 07:16:51;;;;;;;15.20;6.25;;;11.10;99.90;;;;;;5065030;28;20040;-86
2023/03/13 07:19:16;;;;;;;16.58;6.07;;;11.20;99.90;;;;;;5048679;28;20056;-88
2023/03/13 07:21:43;;;;;;;13.48;4.50;;;11.20;99.90;;;;;;5057532;28;20037;-83
2023/03/13 07:24:08;;;;;;;17.98;6.90;;;11.20;99.90;;;;;;5054997;28;20064;-84
2023/03/13 07:26:34;;;;;;;18.20;5.53;;;11.20;99.90;;;;;;5056347;28;20375;-83
2023/03/13 07:29:00;;;;;;;19.05;7.50;;;11.20;99.90;;;;;;5036901;28;20122;-85
2023/03/13 07:31:28;;;;;;;16.85;6.47;;;11.30;99.90;;;;;;5055875;28;20056;-85
2023/03/13 07:33:57;;;;;;;15.85;6.18;;;11.20;99.90;;;;;;5059012;28;20118;-86
2023/03/13 07:36:23;;;;;;;22.90;7.15;;;11.20;99.90;;;;;;5061217;28;20048;-84
2023/03/13 07:38:49;;;;;;;16.02;5.88;;;11.20;99.90;;;;;;5072290;28;20048;-80
2023/03/13 07:41:15;;;;;;;17.77;5.68;;;11.20;99.90;;;;;;5068531;28;20516;-81
2023/03/13 07:43:41;;;;;;;17.65;5.88;;;11.20;99.90;;;;;;5067289;28;20040;-84
2023/03/13 07:46:10;;;;;;;12.13;5.35;;;11.30;99.90;;;;;;5072657;28;20494;-84
2023/03/13 07:48:38;;;;;;;12.20;5.50;;;11.30;99.90;;;;;;5071431;28;20045;-84
2023/03/13 07:51:07;;;;;;;12.27;5.53;;;11.30;99.90;;;;;;5064306;28;20045;-84
2023/03/13 07:53:33;;;;;;;15.25;5.68;;;11.30;99.90;;;;;;5066479;28;20403;-84
2023/03/13 07:56:08;;;;;;;14.13;6.38;;;11.30;99.90;;;;;;5055228;28;20041;-83
2023/03/13 07:58:37;;;;;;;12.35;6.45;;;11.30;99.90;;;;;;5056658;28;20056;-84
2023/03/13 08:01:21;;;;;;;12.32;5.43;;;11.30;99.90;;;;;;5047031;28;20076;-83
2023/03/13 08:03:50;;;;;;;11.77;4.82;;;11.30;99.90;;;;;;5068147;28;20080;-80
2023/03/13 08:06:18;;;;;;;12.75;5.43;;;11.30;99.90;;;;;;5082618;28;20064;-84
2023/03/13 08:08:44;;;;;;;10.27;4.95;;;11.30;99.90;;;;;;5043836;28;20051;-82
2023/03/13 08:11:13;;;;;;;10.48;4.95;;;11.30;99.90;;;;;;5058848;28;20056;-81
2023/03/13 08:13:40;;;;;;;14.02;5.65;;;11.40;99.90;;;;;;5053905;28;20086;-81
2023/03/13 08:16:13;;;;;;;9.32;3.90;;;11.40;99.90;;;;;;5053075;28;20690;-83
2023/03/13 08:18:41;;;;;;;7.32;3.22;;;11.40;99.90;;;;;;5070685;28;20060;-82
2023/03/13 08:21:15;;;;;;;7.85;3.40;;;11.40;99.90;;;;;;5057263;28;20108;-81
2023/03/13 08:23:41;;;;;;;7.45;3.47;;;11.40;99.90;;;;;;5054326;28;20401;-83
2023/03/13 08:26:13;;;;;;;8.20;3.70;;;11.30;99.90;;;;;;5070645;28;20090;-81
2023/03/13 08:28:39;;;;;;;11.65;3.70;;;11.40;99.90;;;;;;5058986;28;20049;-83
2023/03/13 08:31:14;;;;;;;8.65;4.20;;;11.30;99.90;;;;;;5064451;28;20080;-82
2023/03/13 08:33:42;;;;;;;9.60;4.28;;;11.40;99.90;;;;;;5053051;28;20088;-82
2023/03/13 08:36:11;;;;;;;11.93;3.75;;;11.40;99.90;;;;;;5054529;28;20037;-82
2023/03/13 08:38:37;;;;;;;8.70;3.45;;;11.40;99.90;;;;;;5054369;28;20390;-87
2023/03/13 08:41:03;;;;;;;5.45;3.15;;;11.40;99.90;;;;;;5035089;28;20052;-83
2023/03/13 08:43:28;;;;;;;7.13;3.05;;;11.40;99.90;;;;;;5045261;28;20080;-82
2023/03/13 08:45:55;;;;;;;7.32;2.90;;;11.40;99.90;;;;;;5040153;28;20068;-83
2023/03/13 08:48:21;;;;;;;9.07;2.90;;;11.40;99.90;;;;;;5071166;28;20052;-83
2023/03/13 08:50:47;;;;;;;9.15;4.05;;;11.40;99.90;;;;;;5036922;28;20047;-83
2023/03/13 08:53:12;;;;;;;5.65;3.13;;;11.40;99.90;;;;;;5064344;28;20048;-83
2023/03/13 08:55:38;;;;;;;13.50;4.22;;;11.40;99.90;;;;;;5036839;28;20677;-88
2023/03/13 08:58:04;;;;;;;6.28;3.90;;;11.40;99.90;;;;;;5054503;28;20054;-83
2023/03/13 09:00:29;;;;;;;12.73;4.45;;;11.40;99.90;;;;;;5054438;28;20520;-84
2023/03/13 09:02:58;;;;;;;9.32;3.72;;;11.50;99.90;;;;;;5041625;28;20505;-83
2023/03/13 09:05:24;;;;;;;6.88;3.88;;;11.50;99.90;;;;;;5067183;28;20049;-83
2023/03/13 09:07:49;;;;;;;11.60;4.43;;;11.70;99.90;;;;;;5036479;28;20048;-83
2023/03/13 09:10:15;;;;;;;10.38;4.10;;;11.80;99.90;;;;;;5053530;28;20542;-84
2023/03/13 09:12:41;;;;;;;8.18;3.70;;;11.70;99.90;;;;;;5053248;28;20048;-87
2023/03/13 09:15:07;;;;;;;7.32;3.47;;;11.80;99.90;;;;;;5055991;28;20097;-84
2023/03/13 09:17:33;;;;;;;9.07;3.28;;;11.80;99.90;;;;;;5053450;28;20485;-84
2023/03/13 09:19:59;;;;;;;6.15;3.17;;;11.80;99.90;;;;;;5034241;28;20037;-84
2023/03/13 09:22:24;;;;;;;8.23;3.38;;;11.80;99.90;;;;;;5046790;28;20041;-84
2023/03/13 09:24:50;;;;;;;8.25;3.78;;;11.80;99.90;;;;;;5047265;28;20032;-84
2023/03/13 09:27:16;;;;;;;10.15;4.00;;;11.70;99.90;;;;;;5043675;28;20049;-85
2023/03/13 09:29:41;;;;;;;6.95;3.85;;;11.60;99.90;;;;;;5053538;28;20044;-87
2023/03/13 09:32:09;;;;;;;7.55;3.53;;;11.60;99.90;;;;;;5033787;28;20296;-84
2023/03/13 09:34:35;;;;;;;6.90;3.58;;;11.60;99.90;;;;;;5057654;28;20413;-84
2023/03/13 09:37:01;;;;;;;9.38;3.35;;;11.60;99.90;;;;;;5019904;28;20052;-85
2023/03/13 09:39:26;;;;;;;9.52;4.82;;;11.60;99.90;;;;;;5040726;28;20064;-83
2023/03/13 09:42:01;;;;;;;19.90;4.57;;;11.60;99.90;;;;;;5022839;28;20037;-84
2023/03/13 09:44:35;;;;;;;8.45;4.35;;;11.60;99.90;;;;;;5056892;28;20048;-83
2023/03/13 09:47:13;;;;;;;9.65;4.63;;;11.50;99.90;;;;;;5037998;28;20132;-83
2023/03/13 09:49:45;;;;;;;5.45;3.00;;;11.50;99.90;;;;;;5070151;28;20402;-84
2023/03/13 09:52:32;;;;;;;5.60;3.00;;;11.60;99.90;;;;;;5056371;28;20040;-83
2023/03/13 09:55:16;;;;;;;8.82;3.30;;;11.70;99.90;;;;;;5069808;28;20098;-84
2023/03/13 09:57:49;;;;;;;7.32;2.75;;;11.70;99.90;;;;;;5060321;28;20053;-83
2023/03/13 10:00:24;;;;;;;7.68;3.47;;;11.70;99.90;;;;;;5037344;28;20051;-83
2023/03/13 10:03:20;;;;;;;8.48;3.10;;;11.70;99.90;;;;;;5041160;28;20080;-84
2023/03/13 10:05:53;;;;;;;5.72;2.63;;;11.80;99.90;;;;;;5041978;28;20509;-86
2023/03/13 10:08:22;;;;;;;10.75;3.40;;;12.10;99.90;;;;;;5039024;28;20048;-84
2023/03/13 10:11:15;;;;;;;8.48;2.60;;;12.30;99.90;;;;;;5053116;28;20123;-86
2023/03/13 10:13:46;;;;;;;7.32;2.83;;;12.50;99.90;;;;;;5049531;28;20103;-85
2023/03/13 10:16:20;;;;;;;8.70;2.90;;;12.50;99.90;;;;;;5049519;28;20052;-84
2023/03/13 10:18:51;;;;;;;7.35;2.58;;;12.50;99.90;;;;;;5053453;28;20052;-85
2023/03/13 10:21:24;;;;;;;10.60;3.25;;;12.50;99.90;;;;;;5066474;28;20091;-84
2023/03/13 10:24:14;;;;;;;7.13;2.40;;;12.40;99.90;;;;;;5073108;28;20105;-87
2023/03/13 10:26:39;;;;;;;6.47;1.90;;;12.40;99.90;;;;;;5061182;28;20570;-85
2023/03/13 10:29:26;;;;;;;7.30;2.00;;;12.30;99.90;;;;;;5058195;28;20096;-84
2023/03/13 10:31:56;;;;;;;8.73;2.35;;;12.30;99.90;;;;;;5065095;28;20174;-87
2023/03/13 10:34:24;;;;;;;6.50;2.13;;;12.40;99.90;;;;;;5056065;28;20060;-83
2023/03/13 10:36:56;;;;;;;7.32;1.65;;;12.50;99.90;;;;;;5069715;28;20052;-85
2023/03/13 10:39:23;;;;;;;13.35;2.80;;;12.60;99.90;;;;;;5072342;28;20051;-84
2023/03/13 10:41:56;;;;;;;10.00;2.83;;;12.70;99.90;;;;;;5055407;28;20150;-84
2023/03/13 10:44:28;;;;;;;10.02;2.40;;;12.80;99.90;;;;;;5055524;28;20064;-85
2023/03/13 10:46:59;;;;;;;8.68;2.30;;;12.80;99.90;;;;;;5064308;28;20052;-86
2023/03/13 10:49:24;;;;;;;10.68;2.42;;;12.90;99.90;;;;;;5063104;28;20056;-85
2023/03/13 10:51:53;;;;;;;7.85;1.83;;;12.90;99.90;;;;;;5064544;28;20041;-85
2023/03/13 10:54:25;;;;;;;10.30;1.58;;;13.00;99.90;;;;;;5052625;28;20056;-86
2023/03/13 10:57:06;;;;;;;12.48;2.33;;;13.00;99.90;;;;;;5052091;28;20048;-85
2023/03/13 10:59:37;;;;;;;9.50;1.95;;;13.00;99.90;;;;;;5064567;28;20063;-84
2023/03/13 11:02:23;;;;;;;13.07;2.20;;;13.00;99.90;;;;;;5057684;28;20675;-85
2023/03/13 11:04:54;;;;;;;8.50;2.25;;;13.10;99.90;;;;;;5054964;28;20050;-84
2023/03/13 11:07:33;;;;;;;12.20;2.35;;;13.20;99.90;;;;;;5055214;28;20056;-85
2023/03/13 11:10:18;;;;;;;9.02;1.90;;;13.40;99.90;;;;;;5050899;28;20182;-85
2023/03/13 11:12:50;;;;;;;10.05;1.95;;;13.50;99.90;;;;;;5065764;28;20139;-84
2023/03/13 11:15:38;;;;;;;12.43;3.00;;;13.50;99.90;;;;;;5071111;28;20526;-86
2023/03/13 11:18:37;;;;;;;9.45;2.35;;;13.50;99.90;;;;;;5067457;28;20045;-85
2023/03/13 11:21:04;;;;;;;12.77;2.33;;;13.60;99.90;;;;;;5065672;28;20037;-85
2023/03/13 11:23:38;;;;;;;12.32;2.28;;;13.60;99.90;;;;;;5070654;28;20052;-85
2023/03/13 11:26:44;;;;;;;8.93;2.58;;;13.60;99.90;;;;;;5071042;28;20589;-85
2023/03/13 11:29:34;;;;;;;9.82;3.00;;;13.60;99.90;;;;;;5070543;28;20048;-84
2023/03/13 11:32:16;;;;;;;6.35;1.92;;;13.80;99.90;;;;;;5070865;28;20421;-86
2023/03/13 11:34:49;;;;;;;4.65;1.77;;;13.90;99.90;;;;;;5038966;28;20041;-84
2023/03/13 11:37:18;;;;;;;7.03;1.85;;;14.10;99.90;;;;;;5068853;28;20490;-84
2023/03/13 11:40:21;;;;;;;6.40;1.75;;;14.20;99.90;;;;;;5072865;28;20049;-85
2023/03/13 11:43:03;;;;;;;5.25;1.35;;;14.20;99.90;;;;;;5035253;28;20041;-85
2023/03/13 11:45:52;;;;;;;5.85;1.55;;;14.40;99.90;;;;;;5052440;28;20052;-85
2023/03/13 11:48:45;;;;;;;5.20;1.40;;;14.70;99.90;;;;;;5043157;28;20045;-84
2023/03/13 11:51:31;;;;;;;4.47;1.58;;;14.70;99.90;;;;;;5060456;28;20127;-85
2023/03/13 11:54:30;;;;;;;3.83;1.20;;;14.60;99.90;;;;;;5050498;28;20050;-86
2023/03/13 11:57:03;;;;;;;3.38;1.20;;;14.60;99.90;;;;;;5067515;28;20041;-85
2023/03/13 11:59:58;;;;;;;5.50;1.80;;;14.40;99.90;;;;;;5054383;28;20102;-85
2023/03/13 12:02:43;;;;;;;3.90;1.10;;;14.50;99.90;;;;;;5044464;28;20052;-85
2023/03/13 12:05:15;;;;;;;2.28;1.02;;;14.80;99.90;;;;;;5053012;28;20040;-84
2023/03/13 12:07:56;;;;;;;4.45;1.00;;;15.20;99.90;;;;;;5050655;28;20068;-85
2023/03/13 12:10:29;;;;;;;4.28;1.17;;;15.10;99.90;;;;;;5057818;28;20048;-86
2023/03/13 12:13:01;;;;;;;5.50;1.20;;;15.00;99.90;;;;;;5053365;28;20128;-85
2023/03/13 12:15:39;;;;;;;6.07;1.23;;;15.30;99.90;;;;;;5068264;28;20062;-84
2023/03/13 12:18:16;;;;;;;4.18;1.40;;;15.60;99.90;;;;;;5069819;28;20083;-87
2023/03/13 12:21:04;;;;;;;4.53;1.27;;;15.50;99.90;;;;;;5041865;28;20103;-86
2023/03/13 12:23:40;;;;;;;8.45;1.63;;;15.20;99.90;;;;;;5050395;28;20052;-86
2023/03/13 12:26:19;;;;;;;;;;;15.00;99.90;;;;;;5050781;28;20493;-87
2023/03/13 12:29:05;;;;;;;8.57;1.38;;;14.90;99.90;;;;;;5079274;28;19931;-86
2023/03/13 12:31:52;;;;;;;5.38;1.77;;;15.20;99.90;;;;;;5050018;28;20061;-85
2023/03/13 12:34:44;;;;;;;5.30;1.67;;;16.30;99.90;;;;;;5066904;28;20213;-85
2023/03/13 12:37:46;;;;;;;4.75;1.60;;;16.20;99.90;;;;;;5052803;28;20056;-85
2023/03/13 12:40:39;;;;;;;3.60;1.10;;;16.00;99.90;;;;;;5069224;28;20066;-86
2023/03/13 12:43:32;;;;;;;5.43;1.60;;;16.00;99.90;;;;;;5070484;28;20048;-85
2023/03/13 12:45:58;;;;;;;5.25;1.13;;;15.90;99.90;;;;;;5068700;28;20123;-86
2023/03/13 12:48:39;;;;;;;7.40;1.50;;;15.50;99.90;;;;;;5052552;28;20194;-86
2023/03/13 12:51:41;;;;;;;7.20;1.58;;;15.20;99.90;;;;;;5041890;28;20382;-86
2023/03/13 12:54:43;;;;;;;9.52;1.95;;;15.10;99.90;;;;;;5049834;28;20088;-86
2023/03/13 12:57:28;;;;;;;9.85;2.08;;;15.20;99.90;;;;;;5049464;28;20045;-86
2023/03/13 13:00:04;;;;;;;10.68;2.15;;;15.20;99.90;;;;;;5062509;28;20190;-85